createdAt,value
2023-03-20T00:00:12.204Z,26.90
2023-03-20T00:02:45.222Z,28.80
2023-03-20T00:05:23.934Z,28.20
2023-03-20T00:08:52.232Z,31.30
2023-03-20T00:12:27.995Z,28.80
2023-03-20T00:15:46.198Z,33.30
2023-03-20T00:22:52.956Z,31.90
2023-03-20T00:26:33.452Z,35.50
2023-03-20T00:29:58.866Z,29.70
2023-03-20T00:36:33.376Z,36.50
2023-03-20T00:39:08.015Z,36.20
2023-03-20T00:41:46.123Z,37.10
2023-03-20T00:44:25.606Z,31.30
2023-03-20T00:47:01.869Z,32.40
2023-03-20T00:49:46.607Z,36.30
2023-03-20T00:53:19.864Z,34.30
2023-03-20T00:56:56.995Z,36.50
2023-03-20T01:10:42.083Z,38.60
2023-03-20T01:14:00.454Z,36.20
2023-03-20T01:17:33.832Z,33.20
2023-03-20T01:21:07.511Z,30.70
2023-03-20T01:23:40.278Z,33.80
2023-03-20T01:26:26.280Z,32.60
2023-03-20T01:28:59.060Z,31.70
2023-03-20T01:31:33.030Z,29.20
2023-03-20T01:34:06.840Z,29.80
2023-03-20T01:36:40.921Z,31.00
2023-03-20T01:40:28.100Z,32.80
2023-03-20T01:43:34.039Z,29.70
2023-03-20T01:47:16.261Z,34.90
2023-03-20T01:50:50.824Z,31.30
2023-03-20T01:53:26.682Z,29.40
2023-03-20T01:56:03.071Z,30.20
2023-03-20T01:58:49.401Z,34.00
2023-03-20T02:01:23.030Z,32.10
2023-03-20T02:06:46.276Z,29.20
2023-03-20T02:10:20.786Z,32.10
2023-03-20T02:13:57.390Z,23.00
2023-03-20T02:21:23.837Z,27.20
2023-03-20T02:24:21.105Z,29.10
2023-03-20T02:27:08.771Z,29.70
2023-03-20T02:30:24.681Z,31.20
2023-03-20T02:33:34.739Z,30.50
2023-03-20T02:36:40.379Z,27.40
2023-03-20T02:40:22.838Z,28.90
2023-03-20T02:44:06.471Z,23.70
2023-03-20T02:51:13.764Z,25.30
2023-03-20T02:53:54.788Z,24.70
2023-03-20T02:56:44.611Z,23.60
2023-03-20T02:59:28.345Z,25.80
2023-03-20T03:02:07.186Z,22.50
2023-03-20T03:04:43.363Z,22.20
2023-03-20T03:07:19.763Z,21.20
2023-03-20T03:10:57.302Z,21.30
2023-03-20T03:14:37.333Z,25.70
2023-03-20T03:35:33.413Z,22.80
2023-03-20T03:38:24.062Z,23.40
2023-03-20T03:41:13.064Z,23.70
2023-03-20T03:43:52.605Z,21.30
2023-03-20T03:46:34.653Z,25.50
2023-03-20T03:49:10.632Z,22.30
2023-03-20T03:51:50.373Z,18.90
2023-03-20T03:55:27.604Z,20.40
2023-03-20T04:02:49.713Z,23.10
2023-03-20T04:06:23.063Z,19.90
2023-03-20T04:08:58.286Z,22.60
2023-03-20T04:11:37.382Z,21.20
2023-03-20T04:14:10.057Z,18.00
2023-03-20T04:16:48.576Z,20.00
2023-03-20T04:19:21.340Z,18.70
2023-03-20T04:21:55.685Z,21.00
2023-03-20T04:24:28.854Z,18.90
2023-03-20T04:27:01.681Z,20.00
2023-03-20T04:29:37.006Z,17.50
2023-03-20T04:32:46.570Z,19.40
2023-03-20T04:35:47.127Z,22.30
2023-03-20T04:39:20.887Z,21.40
2023-03-20T04:42:54.884Z,21.30
2023-03-20T04:53:17.254Z,22.90
2023-03-20T04:55:56.327Z,24.40
2023-03-20T04:58:29.724Z,23.90
2023-03-20T05:01:02.557Z,23.80
2023-03-20T05:03:36.375Z,19.80
2023-03-20T05:06:10.329Z,25.50
2023-03-20T05:08:46.833Z,25.10
2023-03-20T05:11:19.526Z,21.80
2023-03-20T05:14:09.164Z,24.50
2023-03-20T05:16:42.154Z,25.00
2023-03-20T05:19:41.404Z,24.90
2023-03-20T05:22:21.677Z,24.60
2023-03-20T05:25:53.126Z,26.00
2023-03-20T05:29:29.320Z,22.40
2023-03-20T05:36:35.252Z,25.20
2023-03-20T05:40:24.500Z,25.80
2023-03-20T05:51:10.324Z,23.30
2023-03-20T05:54:44.832Z,24.50
2023-03-20T05:58:24.801Z,24.20
2023-03-20T06:02:07.677Z,27.70
2023-03-20T06:05:46.016Z,28.20
2023-03-20T06:08:19.229Z,28.60
2023-03-20T06:10:54.169Z,29.60
2023-03-20T06:13:26.957Z,30.70
2023-03-20T06:16:00.429Z,29.90
2023-03-20T06:18:34.138Z,28.80
2023-03-20T06:21:08.339Z,32.10
2023-03-20T06:24:43.645Z,28.00
2023-03-20T06:28:17.369Z,28.10
2023-03-20T06:31:53.034Z,27.20
2023-03-20T06:41:46.048Z,33.90
2023-03-20T06:45:19.871Z,28.10
2023-03-20T06:48:57.156Z,25.20
2023-03-20T06:52:30.640Z,29.50
2023-03-20T06:56:22.744Z,26.20
2023-03-20T07:06:49.502Z,31.80
2023-03-20T07:09:26.032Z,37.70
2023-03-20T07:12:01.674Z,33.60
2023-03-20T07:21:27.736Z,30.60
2023-03-20T07:25:01.332Z,32.80
2023-03-20T07:38:44.754Z,28.20
2023-03-20T07:41:18.638Z,31.00
2023-03-20T07:43:59.028Z,30.50
2023-03-20T07:46:58.955Z,32.10
2023-03-20T07:49:31.779Z,30.90
2023-03-20T07:52:05.068Z,29.70
2023-03-20T07:55:40.039Z,27.40
2023-03-20T07:59:14.070Z,29.70
2023-03-20T08:06:14.398Z,29.00
2023-03-20T08:11:18.970Z,29.30
2023-03-20T08:13:52.061Z,27.10
2023-03-20T08:16:25.546Z,29.50
2023-03-20T08:19:01.697Z,28.00
2023-03-20T08:21:35.576Z,29.60
2023-03-20T08:25:10.348Z,29.00
2023-03-20T08:39:30.297Z,30.80
2023-03-20T08:42:04.649Z,30.30
2023-03-20T08:44:37.581Z,32.70
2023-03-20T08:47:11.786Z,29.30
2023-03-20T08:49:44.777Z,30.50
2023-03-20T08:52:17.933Z,29.70
2023-03-20T08:54:50.558Z,28.60
2023-03-20T08:57:24.742Z,30.90
2023-03-20T08:59:59.288Z,27.40
2023-03-20T09:02:32.403Z,27.40
2023-03-20T09:05:05.305Z,28.70
2023-03-20T09:07:39.637Z,27.10
2023-03-20T09:10:14.736Z,29.10
2023-03-20T09:12:47.865Z,27.90
2023-03-20T09:15:20.533Z,28.30
2023-03-20T09:17:53.512Z,28.40
2023-03-20T09:20:26.191Z,24.10
2023-03-20T09:23:00.084Z,25.70
2023-03-20T09:25:32.772Z,27.20
2023-03-20T09:28:05.894Z,26.90
2023-03-20T09:33:10.829Z,24.50
2023-03-20T09:35:44.118Z,29.30
2023-03-20T09:38:17.536Z,29.00
2023-03-20T09:40:55.672Z,25.70
2023-03-20T09:43:38.019Z,22.60
2023-03-20T09:46:29.059Z,24.40
2023-03-20T09:49:09.499Z,25.40
2023-03-20T09:51:48.292Z,24.90
2023-03-20T09:54:29.420Z,23.90
2023-03-20T09:57:03.356Z,22.50
2023-03-20T09:59:38.695Z,27.70
2023-03-20T10:02:20.169Z,23.60
2023-03-20T10:04:53.904Z,28.40
2023-03-20T10:07:28.417Z,22.20
2023-03-20T10:10:02.436Z,24.50
2023-03-20T10:12:52.011Z,24.40
2023-03-20T10:15:40.223Z,25.00
2023-03-20T10:18:23.310Z,26.40
2023-03-20T10:21:05.124Z,23.10
2023-03-20T10:23:44.431Z,26.00
2023-03-20T10:26:20.830Z,23.90
2023-03-20T10:28:58.760Z,22.00
2023-03-20T10:31:46.940Z,22.40
2023-03-20T10:34:32.016Z,18.40
2023-03-20T10:37:21.347Z,19.10
2023-03-20T10:40:06.372Z,17.80
2023-03-20T10:42:43.230Z,19.60
2023-03-20T10:45:29.480Z,19.60
2023-03-20T10:48:06.671Z,20.80
2023-03-20T10:50:45.926Z,19.50
2023-03-20T10:53:26.937Z,17.00
2023-03-20T10:56:05.386Z,21.20
2023-03-20T10:58:42.180Z,17.80
2023-03-20T11:01:14.623Z,18.60
2023-03-20T11:03:47.905Z,22.90
2023-03-20T11:06:25.467Z,27.40
2023-03-20T11:08:58.659Z,23.60
2023-03-20T11:11:36.568Z,19.70
2023-03-20T11:14:21.722Z,19.70
2023-03-20T11:16:56.284Z,19.60
2023-03-20T11:19:28.888Z,19.20
2023-03-20T11:22:08.987Z,18.70
2023-03-20T11:24:46.815Z,20.00
2023-03-20T11:27:22.476Z,19.60
2023-03-20T11:29:57.219Z,24.40
2023-03-20T11:32:35.436Z,20.70
2023-03-20T11:35:20.816Z,21.70
2023-03-20T11:37:55.447Z,21.50
2023-03-20T11:40:32.681Z,23.20
2023-03-20T11:43:14.557Z,30.50
2023-03-20T11:45:49.464Z,28.60
2023-03-20T11:48:25.220Z,31.40
2023-03-20T11:51:06.719Z,30.90
2023-03-20T11:53:41.716Z,33.70
2023-03-20T11:56:23.951Z,32.30
2023-03-20T11:59:02.618Z,30.00
2023-03-20T12:01:45.333Z,37.60
2023-03-20T12:04:21.593Z,36.30
2023-03-20T12:06:59.043Z,33.50
2023-03-20T12:09:53.335Z,36.20
2023-03-20T12:12:37.013Z,33.00
2023-03-20T12:15:18.883Z,34.90
2023-03-20T12:17:58.607Z,38.70
2023-03-20T12:20:38.623Z,38.60
2023-03-20T12:23:16.523Z,34.00
2023-03-20T12:25:55.933Z,33.90
2023-03-20T12:28:34.870Z,31.80
2023-03-20T12:31:19.304Z,34.50
2023-03-20T12:33:56.572Z,34.20
2023-03-20T12:36:35.706Z,40.30
2023-03-20T12:39:14.663Z,39.50
2023-03-20T12:42:01.226Z,38.20
2023-03-20T12:44:41.093Z,41.80
2023-03-20T12:47:41.128Z,40.50
2023-03-20T12:50:26.064Z,38.70
2023-03-20T12:53:10.221Z,40.80
2023-03-20T12:58:27.594Z,36.50
2023-03-20T13:01:05.656Z,35.00
2023-03-20T13:04:05.262Z,36.80
2023-03-20T13:06:52.140Z,39.90
2023-03-20T13:09:57.694Z,41.00
2023-03-20T13:12:39.996Z,43.60
2023-03-20T13:15:24.467Z,47.90
2023-03-20T13:18:03.382Z,39.80
2023-03-20T13:20:42.862Z,33.50
2023-03-20T13:23:25.404Z,30.50
2023-03-20T13:26:25.182Z,30.60
2023-03-20T13:29:05.804Z,30.60
2023-03-20T13:31:55.365Z,31.80
2023-03-20T13:34:38.232Z,36.00
2023-03-20T13:37:23.989Z,31.00
2023-03-20T13:40:07.088Z,30.10
2023-03-20T13:42:44.572Z,30.10
2023-03-20T13:45:35.445Z,29.50
2023-03-20T13:48:27.329Z,31.30
2023-03-20T13:51:10.033Z,30.50
2023-03-20T13:53:55.799Z,31.90
2023-03-20T13:56:37.764Z,37.40
2023-03-20T13:59:31.624Z,26.80
2023-03-20T14:02:18.272Z,28.90
2023-03-20T14:04:54.801Z,28.90
2023-03-20T14:07:36.813Z,29.90
2023-03-20T14:10:37.154Z,28.40
2023-03-20T14:13:16.022Z,29.10
2023-03-20T14:15:58.172Z,30.60
2023-03-20T14:18:33.293Z,27.90
2023-03-20T14:21:14.262Z,27.80
2023-03-20T14:23:50.945Z,27.20
2023-03-20T14:26:29.222Z,26.40
2023-03-20T14:29:21.091Z,29.20
2023-03-20T14:31:54.411Z,30.70
2023-03-20T14:34:27.080Z,31.40
2023-03-20T14:37:04.154Z,32.60
2023-03-20T14:39:46.220Z,33.20
2023-03-20T14:42:43.052Z,30.80
2023-03-20T14:45:43.906Z,27.50
2023-03-20T14:48:33.615Z,28.20
2023-03-20T14:51:24.541Z,28.40
2023-03-20T14:54:19.950Z,26.20
2023-03-20T14:56:54.582Z,31.30
2023-03-20T14:59:33.442Z,29.00
2023-03-20T15:02:07.820Z,32.60
2023-03-20T15:04:43.949Z,32.80
2023-03-20T15:07:24.640Z,31.00
2023-03-20T15:10:01.457Z,31.40
2023-03-20T15:12:36.782Z,31.10
2023-03-20T15:15:24.751Z,29.30
2023-03-20T15:18:05.155Z,30.50
2023-03-20T15:20:40.109Z,30.00
2023-03-20T15:23:14.314Z,32.20
2023-03-20T15:25:48.696Z,30.40
2023-03-20T15:28:25.110Z,31.00
2023-03-20T15:31:04.158Z,30.80
2023-03-20T15:33:42.842Z,31.20
2023-03-20T15:36:20.778Z,31.10
2023-03-20T15:39:04.472Z,30.30
2023-03-20T15:41:39.485Z,27.50
2023-03-20T15:44:24.214Z,29.90
2023-03-20T15:47:03.770Z,28.50
2023-03-20T15:49:37.258Z,28.00
2023-03-20T15:54:46.493Z,28.90
2023-03-20T15:57:28.580Z,28.30
2023-03-20T16:00:02.872Z,28.60
2023-03-20T16:02:39.624Z,30.10
2023-03-20T16:05:17.589Z,27.00
2023-03-20T16:07:50.829Z,24.40
2023-03-20T16:10:29.744Z,28.60
2023-03-20T16:13:03.703Z,25.30
2023-03-20T16:15:37.024Z,33.40
2023-03-20T16:18:13.485Z,30.00
2023-03-20T16:20:53.713Z,32.80
2023-03-20T16:23:36.497Z,27.10
2023-03-20T16:26:13.353Z,29.90
2023-03-20T16:28:49.507Z,36.70
2023-03-20T16:31:27.832Z,26.80
2023-03-20T16:34:06.478Z,50.00
2023-03-20T16:36:41.143Z,33.50
2023-03-20T16:39:22.003Z,38.60
2023-03-20T16:42:04.500Z,38.50
2023-03-20T16:44:39.956Z,50.30
2023-03-20T16:47:24.182Z,73.80
2023-03-20T16:50:19.166Z,72.90
2023-03-20T16:52:57.858Z,73.10
2023-03-20T16:55:32.671Z,68.90
2023-03-20T16:58:09.046Z,44.80
2023-03-20T17:00:51.245Z,33.30
2023-03-20T17:03:31.464Z,35.60
2023-03-20T17:06:11.352Z,31.30
2023-03-20T17:08:48.477Z,27.70
2023-03-20T17:11:36.039Z,34.10
2023-03-20T17:14:09.213Z,28.50
2023-03-20T17:16:42.321Z,31.60
2023-03-20T17:19:19.075Z,31.70
2023-03-20T17:21:52.196Z,31.50
2023-03-20T17:24:24.894Z,32.70
2023-03-20T17:27:00.429Z,33.90
2023-03-20T17:29:34.118Z,34.70
2023-03-20T17:32:13.635Z,31.50
2023-03-20T17:34:47.371Z,32.20
2023-03-20T17:37:29.690Z,31.30
2023-03-20T17:40:08.390Z,29.70
2023-03-20T17:42:44.692Z,32.90
2023-03-20T17:45:20.833Z,34.70
2023-03-20T17:47:54.690Z,32.40
2023-03-20T17:50:28.039Z,34.30
2023-03-20T17:53:02.331Z,31.50
2023-03-20T17:55:36.901Z,33.90
2023-03-20T17:58:15.104Z,35.20
2023-03-20T18:00:48.329Z,34.40
2023-03-20T18:03:21.850Z,38.60
2023-03-20T18:05:55.114Z,31.60
2023-03-20T18:08:27.960Z,35.10
2023-03-20T18:11:01.415Z,31.90
2023-03-20T18:16:08.868Z,33.80
2023-03-20T18:18:41.802Z,34.50
2023-03-20T18:21:17.716Z,39.20
2023-03-20T18:23:51.092Z,37.10
2023-03-20T18:26:26.282Z,39.50
2023-03-20T18:29:00.180Z,47.50
2023-03-20T18:31:33.886Z,49.70
2023-03-20T18:34:09.413Z,49.20
2023-03-20T18:36:44.183Z,56.60
2023-03-20T18:39:23.653Z,67.00
2023-03-20T18:41:59.901Z,74.20
2023-03-20T18:44:34.273Z,72.10
2023-03-20T18:47:12.759Z,66.70
2023-03-20T18:49:50.697Z,97.30
2023-03-20T18:52:26.942Z,138.20
2023-03-20T18:55:03.576Z,65.30
2023-03-20T18:57:43.302Z,61.00
2023-03-20T19:00:27.539Z,59.80
2023-03-20T19:03:07.042Z,65.80
2023-03-20T19:05:43.888Z,75.70
2023-03-20T19:08:23.758Z,67.40
2023-03-20T19:11:01.818Z,63.20
2023-03-20T19:13:37.314Z,62.20
2023-03-20T19:16:24.995Z,58.00
2023-03-20T19:19:01.976Z,60.00
2023-03-20T19:21:37.071Z,58.80
2023-03-20T19:24:12.814Z,63.00
2023-03-20T19:26:47.716Z,57.10
2023-03-20T19:29:21.697Z,59.40
2023-03-20T19:31:55.177Z,63.30
2023-03-20T19:35:10.807Z,65.60
2023-03-20T19:37:22.142Z,64.80
2023-03-20T19:39:56.017Z,65.20
2023-03-20T19:42:53.044Z,62.80
2023-03-20T19:45:24.002Z,53.80
2023-03-20T19:47:57.439Z,55.80
2023-03-20T19:50:35.452Z,60.30
2023-03-20T19:53:10.550Z,63.40
2023-03-20T19:55:43.887Z,68.10
2023-03-20T19:58:17.386Z,64.80
2023-03-20T20:03:32.918Z,57.90
2023-03-20T20:06:06.381Z,56.70
2023-03-20T20:08:47.915Z,68.30
2023-03-20T20:11:22.984Z,67.90
2023-03-20T20:14:14.476Z,73.00
2023-03-20T20:16:49.392Z,78.00
2023-03-20T20:19:22.396Z,86.10
2023-03-20T20:22:20.108Z,81.90
2023-03-20T20:24:50.734Z,84.80
2023-03-20T20:27:27.565Z,72.00
2023-03-20T20:30:00.839Z,71.40
2023-03-20T20:32:34.215Z,70.50
2023-03-20T20:40:56.668Z,54.00
2023-03-20T20:44:06.759Z,62.00
2023-03-20T20:46:25.167Z,50.60
2023-03-20T20:49:13.021Z,53.40
2023-03-20T20:51:53.022Z,53.80
2023-03-20T20:54:26.531Z,52.90
2023-03-20T20:56:59.335Z,60.30
2023-03-20T20:59:33.061Z,57.60
2023-03-20T21:04:45.520Z,53.80
2023-03-20T21:07:18.328Z,57.60
2023-03-20T21:09:56.563Z,59.20
2023-03-20T21:12:38.244Z,55.10
2023-03-20T21:15:16.284Z,56.30
2023-03-20T21:20:34.270Z,49.00
2023-03-20T21:23:07.335Z,55.10
2023-03-20T21:25:44.651Z,49.80
2023-03-20T21:28:21.990Z,50.70
2023-03-20T21:31:22.748Z,51.60
2023-03-20T21:34:05.440Z,55.00
2023-03-20T21:36:38.559Z,52.90
2023-03-20T21:39:11.241Z,52.20
2023-03-20T21:41:44.760Z,52.20
2023-03-20T21:44:56.199Z,52.50
2023-03-20T21:53:34.938Z,50.70
2023-03-20T22:02:09.565Z,48.00
2023-03-20T22:05:18.825Z,51.30
2023-03-20T22:13:59.692Z,51.20
2023-03-20T22:17:17.554Z,48.70
2023-03-20T22:22:34.485Z,57.10
2023-03-20T22:39:50.957Z,40.00
2023-03-20T22:45:01.279Z,37.60
2023-03-20T22:47:35.941Z,39.70
2023-03-20T22:50:09.766Z,37.60
2023-03-20T22:52:49.265Z,43.30
2023-03-20T22:55:25.445Z,37.30
2023-03-20T22:58:06.701Z,40.40
2023-03-20T23:00:41.694Z,44.00
2023-03-20T23:03:22.685Z,40.10
2023-03-20T23:06:10.791Z,38.80
2023-03-20T23:08:50.720Z,38.90
2023-03-20T23:11:29.226Z,37.50
2023-03-20T23:14:03.672Z,36.70
2023-03-20T23:16:37.286Z,35.30
2023-03-20T23:19:09.893Z,35.20
2023-03-20T23:21:43.301Z,36.20
2023-03-20T23:24:17.211Z,35.80
2023-03-20T23:26:50.713Z,38.70
2023-03-20T23:29:23.674Z,35.40
2023-03-20T23:31:56.677Z,38.10
2023-03-20T23:34:29.307Z,31.70
2023-03-20T23:37:02.941Z,32.90
2023-03-20T23:42:20.242Z,30.60
2023-03-20T23:45:02.213Z,30.50
2023-03-20T23:47:44.761Z,32.10
2023-03-20T23:50:27.407Z,30.30
2023-03-20T23:53:17.111Z,30.40
2023-03-20T23:55:54.734Z,31.90
2023-03-20T23:58:29.573Z,32.50
